sensor_id;sensor_type;location;lat;lon;timestamp;pressure;altitude;pressure_sealevel;temperature;humidity
75513;BME280;64090;49.770;18.760;2024-01-25T00:02:28;97600.13;;;5.86;75.82
75513;BME280;64090;49.770;18.760;2024-01-25T00:05:31;97594.05;;;5.84;75.99
75513;BME280;64090;49.770;18.760;2024-01-25T00:08:35;97604.44;;;5.84;75.86
75513;BME280;64090;49.770;18.760;2024-01-25T00:11:38;97599.17;;;5.85;75.53
75513;BME280;64090;49.770;18.760;2024-01-25T00:14:41;97588.65;;;5.86;74.81
75513;BME280;64090;49.770;18.760;2024-01-25T00:17:44;97597.46;;;5.87;74.80
75513;BME280;64090;49.770;18.760;2024-01-25T00:20:47;97610.48;;;5.91;74.19
75513;BME280;64090;49.770;18.760;2024-01-25T00:23:49;97608.69;;;5.93;74.07
75513;BME280;64090;49.770;18.760;2024-01-25T00:26:53;97619.61;;;5.97;73.72
75513;BME280;64090;49.770;18.760;2024-01-25T00:29:56;97615.08;;;5.98;73.14
75513;BME280;64090;49.770;18.760;2024-01-25T00:32:59;97617.61;;;6.03;72.58
75513;BME280;64090;49.770;18.760;2024-01-25T00:36:02;97613.65;;;6.07;72.25
75513;BME280;64090;49.770;18.760;2024-01-25T00:39:05;97629.30;;;6.07;72.01
75513;BME280;64090;49.770;18.760;2024-01-25T00:42:12;97623.65;;;6.06;72.10
75513;BME280;64090;49.770;18.760;2024-01-25T00:45:16;97622.10;;;6.07;71.97
75513;BME280;64090;49.770;18.760;2024-01-25T00:48:19;97617.75;;;6.07;71.82
75513;BME280;64090;49.770;18.760;2024-01-25T00:51:22;97614.70;;;6.04;71.95
75513;BME280;64090;49.770;18.760;2024-01-25T00:54:26;97618.35;;;6.04;71.73
75513;BME280;64090;49.770;18.760;2024-01-25T00:57:29;97623.04;;;6.02;72.25
75513;BME280;64090;49.770;18.760;2024-01-25T01:00:33;97622.55;;;5.99;72.65
75513;BME280;64090;49.770;18.760;2024-01-25T01:03:36;97630.36;;;5.97;72.76
75513;BME280;64090;49.770;18.760;2024-01-25T01:06:40;97628.11;;;5.94;73.20
75513;BME280;64090;49.770;18.760;2024-01-25T01:09:43;97628.27;;;5.92;73.49
75513;BME280;64090;49.770;18.760;2024-01-25T01:12:46;97640.58;;;5.90;73.92
75513;BME280;64090;49.770;18.760;2024-01-25T01:15:49;97635.95;;;5.88;74.27
75513;BME280;64090;49.770;18.760;2024-01-25T01:18:52;97639.58;;;5.88;74.34
75513;BME280;64090;49.770;18.760;2024-01-25T01:21:55;97641.98;;;5.86;74.59
75513;BME280;64090;49.770;18.760;2024-01-25T01:24:58;97646.67;;;5.83;74.89
75513;BME280;64090;49.770;18.760;2024-01-25T01:28:01;97646.53;;;5.80;74.91
75513;BME280;64090;49.770;18.760;2024-01-25T01:31:04;97644.86;;;5.79;74.82
75513;BME280;64090;49.770;18.760;2024-01-25T01:34:07;97648.80;;;5.79;74.63
75513;BME280;64090;49.770;18.760;2024-01-25T01:37:10;97642.33;;;5.76;74.51
75513;BME280;64090;49.770;18.760;2024-01-25T01:40:13;97640.66;;;5.78;74.33
75513;BME280;64090;49.770;18.760;2024-01-25T01:43:19;97648.92;;;5.75;74.53
75513;BME280;64090;49.770;18.760;2024-01-25T01:49:36;97649.61;;;5.70;74.35
75513;BME280;64090;49.770;18.760;2024-01-25T01:52:39;97643.56;;;5.71;74.29
75513;BME280;64090;49.770;18.760;2024-01-25T01:55:42;97645.52;;;5.70;74.21
75513;BME280;64090;49.770;18.760;2024-01-25T01:58:47;97646.83;;;5.68;74.67
75513;BME280;64090;49.770;18.760;2024-01-25T02:01:52;97642.45;;;5.63;74.77
75513;BME280;64090;49.770;18.760;2024-01-25T02:04:55;97643.33;;;5.60;75.15
75513;BME280;64090;49.770;18.760;2024-01-25T02:07:57;97640.48;;;5.60;75.02
75513;BME280;64090;49.770;18.760;2024-01-25T02:11:00;97640.27;;;5.59;74.87
75513;BME280;64090;49.770;18.760;2024-01-25T02:14:04;97639.30;;;5.63;74.34
75513;BME280;64090;49.770;18.760;2024-01-25T02:17:08;97643.27;;;5.59;74.58
75513;BME280;64090;49.770;18.760;2024-01-25T02:20:11;97640.16;;;5.59;74.58
75513;BME280;64090;49.770;18.760;2024-01-25T02:23:15;97636.45;;;5.57;74.51
75513;BME280;64090;49.770;18.760;2024-01-25T02:26:17;97641.80;;;5.57;74.32
75513;BME280;64090;49.770;18.760;2024-01-25T02:29:21;97636.50;;;5.56;74.73
75513;BME280;64090;49.770;18.760;2024-01-25T02:32:23;97636.96;;;5.54;74.40
75513;BME280;64090;49.770;18.760;2024-01-25T02:35:26;97638.02;;;5.54;74.60
75513;BME280;64090;49.770;18.760;2024-01-25T02:38:29;97638.34;;;5.52;74.97
75513;BME280;64090;49.770;18.760;2024-01-25T02:41:32;97638.42;;;5.48;75.01
75513;BME280;64090;49.770;18.760;2024-01-25T02:44:35;97648.53;;;5.46;75.26
75513;BME280;64090;49.770;18.760;2024-01-25T02:47:38;97647.58;;;5.45;75.02
75513;BME280;64090;49.770;18.760;2024-01-25T02:50:41;97652.63;;;5.44;75.32
75513;BME280;64090;49.770;18.760;2024-01-25T02:53:44;97653.05;;;5.44;75.00
75513;BME280;64090;49.770;18.760;2024-01-25T02:56:47;97655.25;;;5.48;74.72
75513;BME280;64090;49.770;18.760;2024-01-25T02:59:49;97651.10;;;5.46;74.73
75513;BME280;64090;49.770;18.760;2024-01-25T03:03:05;97659.54;;;5.45;74.59
75513;BME280;64090;49.770;18.760;2024-01-25T03:06:08;97662.17;;;5.45;74.44
75513;BME280;64090;49.770;18.760;2024-01-25T03:09:14;97661.75;;;5.44;74.47
75513;BME280;64090;49.770;18.760;2024-01-25T03:12:20;97664.70;;;5.41;74.53
75513;BME280;64090;49.770;18.760;2024-01-25T03:15:32;97667.42;;;5.39;74.79
75513;BME280;64090;49.770;18.760;2024-01-25T03:18:52;97666.10;;;5.33;75.07
75513;BME280;64090;49.770;18.760;2024-01-25T03:21:56;97677.02;;;5.31;75.02
75513;BME280;64090;49.770;18.760;2024-01-25T03:25:08;97676.52;;;5.31;75.05
75513;BME280;64090;49.770;18.760;2024-01-25T03:28:21;97671.23;;;5.30;74.91
75513;BME280;64090;49.770;18.760;2024-01-25T03:31:34;97675.25;;;5.30;75.10
75513;BME280;64090;49.770;18.760;2024-01-25T03:34:43;97667.95;;;5.26;75.46
75513;BME280;64090;49.770;18.760;2024-01-25T03:38:00;97667.54;;;5.24;74.93
75513;BME280;64090;49.770;18.760;2024-01-25T03:41:07;97672.96;;;5.30;74.14
75513;BME280;64090;49.770;18.760;2024-01-25T03:44:10;97672.16;;;5.32;74.55
75513;BME280;64090;49.770;18.760;2024-01-25T03:47:16;97663.60;;;5.32;74.88
75513;BME280;64090;49.770;18.760;2024-01-25T03:50:22;97663.01;;;5.31;74.74
75513;BME280;64090;49.770;18.760;2024-01-25T03:53:41;97660.00;;;5.28;75.12
75513;BME280;64090;49.770;18.760;2024-01-25T03:56:49;97649.38;;;5.24;75.32
75513;BME280;64090;49.770;18.760;2024-01-25T04:00:06;97651.52;;;5.21;75.51
75513;BME280;64090;49.770;18.760;2024-01-25T04:03:12;97644.08;;;5.18;75.56
75513;BME280;64090;49.770;18.760;2024-01-25T04:06:41;97652.58;;;5.19;75.67
75513;BME280;64090;49.770;18.760;2024-01-25T04:10:09;97649.14;;;5.18;75.78
75513;BME280;64090;49.770;18.760;2024-01-25T04:13:17;97647.86;;;5.18;75.52
75513;BME280;64090;49.770;18.760;2024-01-25T04:16:27;97648.89;;;5.17;75.90
75513;BME280;64090;49.770;18.760;2024-01-25T04:19:35;97654.09;;;5.16;75.38
75513;BME280;64090;49.770;18.760;2024-01-25T04:22:39;97654.35;;;5.20;74.93
75513;BME280;64090;49.770;18.760;2024-01-25T04:26:14;97650.25;;;5.23;75.02
75513;BME280;64090;49.770;18.760;2024-01-25T04:29:22;97661.58;;;5.22;75.11
75513;BME280;64090;49.770;18.760;2024-01-25T04:32:47;97654.28;;;5.19;75.65
75513;BME280;64090;49.770;18.760;2024-01-25T04:35:55;97643.29;;;5.11;76.18
75513;BME280;64090;49.770;18.760;2024-01-25T04:39:01;97654.50;;;5.10;75.96
75513;BME280;64090;49.770;18.760;2024-01-25T04:42:08;97645.63;;;5.04;76.55
75513;BME280;64090;49.770;18.760;2024-01-25T04:48:55;97649.85;;;4.96;76.79
75513;BME280;64090;49.770;18.760;2024-01-25T04:52:11;97650.01;;;4.93;76.92
75513;BME280;64090;49.770;18.760;2024-01-25T04:55:28;97655.21;;;4.91;77.01
75513;BME280;64090;49.770;18.760;2024-01-25T04:58:42;97642.42;;;4.89;77.29
75513;BME280;64090;49.770;18.760;2024-01-25T05:05:01;97655.97;;;4.91;77.13
75513;BME280;64090;49.770;18.760;2024-01-25T05:08:09;97660.59;;;4.95;76.73
75513;BME280;64090;49.770;18.760;2024-01-25T05:11:20;97664.38;;;4.94;76.84
75513;BME280;64090;49.770;18.760;2024-01-25T05:14:29;97667.86;;;4.95;76.54
75513;BME280;64090;49.770;18.760;2024-01-25T05:17:49;97669.84;;;4.98;76.32
75513;BME280;64090;49.770;18.760;2024-01-25T05:21:01;97665.02;;;4.97;76.04
75513;BME280;64090;49.770;18.760;2024-01-25T05:24:15;97670.20;;;4.98;76.18
75513;BME280;64090;49.770;18.760;2024-01-25T05:27:24;97665.98;;;4.95;76.41
75513;BME280;64090;49.770;18.760;2024-01-25T05:34:17;97666.86;;;4.96;75.61
75513;BME280;64090;49.770;18.760;2024-01-25T05:37:31;97667.45;;;5.01;75.35
75513;BME280;64090;49.770;18.760;2024-01-25T05:40:37;97660.83;;;5.00;75.45
75513;BME280;64090;49.770;18.760;2024-01-25T05:43:43;97656.40;;;4.99;75.48
75513;BME280;64090;49.770;18.760;2024-01-25T05:46:50;97643.99;;;4.95;75.57
75513;BME280;64090;49.770;18.760;2024-01-25T05:49:59;97638.52;;;4.91;75.76
75513;BME280;64090;49.770;18.760;2024-01-25T05:56:29;97647.88;;;4.85;75.73
75513;BME280;64090;49.770;18.760;2024-01-25T05:59:44;97644.68;;;4.85;75.73
75513;BME280;64090;49.770;18.760;2024-01-25T06:02:53;97640.01;;;4.84;75.89
75513;BME280;64090;49.770;18.760;2024-01-25T06:06:16;97638.72;;;4.83;76.18
75513;BME280;64090;49.770;18.760;2024-01-25T06:09:47;97633.80;;;4.78;76.51
75513;BME280;64090;49.770;18.760;2024-01-25T06:13:03;97626.42;;;4.78;76.40
75513;BME280;64090;49.770;18.760;2024-01-25T06:16:26;97628.11;;;4.77;76.40
75513;BME280;64090;49.770;18.760;2024-01-25T06:19:48;97626.30;;;4.76;76.47
75513;BME280;64090;49.770;18.760;2024-01-25T06:22:59;97629.33;;;4.74;76.58
75513;BME280;64090;49.770;18.760;2024-01-25T06:26:18;97628.74;;;4.73;76.44
75513;BME280;64090;49.770;18.760;2024-01-25T06:29:36;97632.85;;;4.75;76.07
75513;BME280;64090;49.770;18.760;2024-01-25T06:32:48;97624.02;;;4.79;76.00
75513;BME280;64090;49.770;18.760;2024-01-25T06:35:57;97620.48;;;4.81;75.80
75513;BME280;64090;49.770;18.760;2024-01-25T06:39:05;97612.42;;;4.83;75.76
75513;BME280;64090;49.770;18.760;2024-01-25T06:42:11;97615.51;;;4.85;75.56
75513;BME280;64090;49.770;18.760;2024-01-25T06:45:20;97617.71;;;4.90;75.32
75513;BME280;64090;49.770;18.760;2024-01-25T06:48:31;97627.03;;;4.90;75.32
75513;BME280;64090;49.770;18.760;2024-01-25T06:51:40;97624.15;;;4.88;75.68
75513;BME280;64090;49.770;18.760;2024-01-25T06:54:43;97625.81;;;4.92;75.19
75513;BME280;64090;49.770;18.760;2024-01-25T06:57:47;97632.81;;;4.95;74.93
75513;BME280;64090;49.770;18.760;2024-01-25T07:01:05;97632.32;;;4.99;74.69
75513;BME280;64090;49.770;18.760;2024-01-25T07:04:29;97634.67;;;4.99;74.69
75513;BME280;64090;49.770;18.760;2024-01-25T07:07:34;97633.10;;;5.00;74.61
75513;BME280;64090;49.770;18.760;2024-01-25T07:10:47;97631.97;;;5.02;74.51
75513;BME280;64090;49.770;18.760;2024-01-25T07:13:58;97637.39;;;5.01;74.78
75513;BME280;64090;49.770;18.760;2024-01-25T07:17:09;97643.66;;;5.01;74.71
75513;BME280;64090;49.770;18.760;2024-01-25T07:20:12;97645.01;;;5.04;74.48
75513;BME280;64090;49.770;18.760;2024-01-25T07:23:21;97656.36;;;4.99;74.89
75513;BME280;64090;49.770;18.760;2024-01-25T07:26:27;97666.38;;;5.04;74.53
75513;BME280;64090;49.770;18.760;2024-01-25T07:29:36;97668.32;;;5.04;74.65
75513;BME280;64090;49.770;18.760;2024-01-25T07:32:39;97675.15;;;5.03;75.04
75513;BME280;64090;49.770;18.760;2024-01-25T07:35:45;97675.34;;;5.02;75.14
75513;BME280;64090;49.770;18.760;2024-01-25T07:38:51;97663.09;;;5.08;75.02
75513;BME280;64090;49.770;18.760;2024-01-25T07:41:54;97674.38;;;5.09;75.00
75513;BME280;64090;49.770;18.760;2024-01-25T07:44:58;97677.77;;;5.11;74.99
75513;BME280;64090;49.770;18.760;2024-01-25T07:48:01;97679.00;;;5.11;75.42
75513;BME280;64090;49.770;18.760;2024-01-25T07:51:16;97690.83;;;5.05;75.80
75513;BME280;64090;49.770;18.760;2024-01-25T07:54:31;97689.90;;;5.03;76.09
75513;BME280;64090;49.770;18.760;2024-01-25T07:57:37;97689.00;;;5.03;76.33
75513;BME280;64090;49.770;18.760;2024-01-25T08:00:42;97691.34;;;4.97;76.27
75513;BME280;64090;49.770;18.760;2024-01-25T08:03:45;97700.55;;;4.98;76.12
75513;BME280;64090;49.770;18.760;2024-01-25T08:06:52;97702.41;;;5.01;76.01
75513;BME280;64090;49.770;18.760;2024-01-25T08:10:01;97708.44;;;5.04;75.79
75513;BME280;64090;49.770;18.760;2024-01-25T08:13:05;97708.99;;;5.01;75.53
75513;BME280;64090;49.770;18.760;2024-01-25T08:16:10;97714.55;;;5.01;74.83
75513;BME280;64090;49.770;18.760;2024-01-25T08:19:16;97715.32;;;5.03;75.13
75513;BME280;64090;49.770;18.760;2024-01-25T08:22:22;97715.49;;;5.02;75.65
75513;BME280;64090;49.770;18.760;2024-01-25T08:25:26;97722.66;;;5.02;76.04
75513;BME280;64090;49.770;18.760;2024-01-25T08:28:29;97729.39;;;5.01;75.90
75513;BME280;64090;49.770;18.760;2024-01-25T08:31:33;97731.29;;;4.95;76.43
75513;BME280;64090;49.770;18.760;2024-01-25T08:34:39;97740.83;;;4.93;76.66
75513;BME280;64090;49.770;18.760;2024-01-25T08:37:45;97742.36;;;4.92;77.12
75513;BME280;64090;49.770;18.760;2024-01-25T08:40:50;97749.48;;;4.82;78.59
75513;BME280;64090;49.770;18.760;2024-01-25T08:43:53;97749.59;;;4.86;78.56
75513;BME280;64090;49.770;18.760;2024-01-25T08:46:59;97762.70;;;4.80;79.07
75513;BME280;64090;49.770;18.760;2024-01-25T08:50:03;97772.59;;;4.71;80.02
75513;BME280;64090;49.770;18.760;2024-01-25T08:53:06;97771.61;;;4.57;81.37
75513;BME280;64090;49.770;18.760;2024-01-25T08:56:09;97768.39;;;4.53;81.70
75513;BME280;64090;49.770;18.760;2024-01-25T09:03:42;97753.48;;;4.42;82.62
75513;BME280;64090;49.770;18.760;2024-01-25T09:07:07;97757.19;;;4.45;82.45
75513;BME280;64090;49.770;18.760;2024-01-25T09:10:09;97757.05;;;4.54;82.29
75513;BME280;64090;49.770;18.760;2024-01-25T09:13:19;97765.20;;;4.65;81.34
75513;BME280;64090;49.770;18.760;2024-01-25T09:16:34;97769.71;;;4.79;80.62
75513;BME280;64090;49.770;18.760;2024-01-25T09:19:49;97770.24;;;4.91;80.62
75513;BME280;64090;49.770;18.760;2024-01-25T09:22:56;97773.75;;;4.83;80.72
75513;BME280;64090;49.770;18.760;2024-01-25T09:26:04;97781.91;;;4.79;80.21
75513;BME280;64090;49.770;18.760;2024-01-25T09:29:14;97773.79;;;4.77;80.64
75513;BME280;64090;49.770;18.760;2024-01-25T09:32:18;97766.58;;;4.83;80.23
75513;BME280;64090;49.770;18.760;2024-01-25T09:35:26;97764.21;;;4.91;80.15
75513;BME280;64090;49.770;18.760;2024-01-25T09:38:32;97763.68;;;4.95;79.45
75513;BME280;64090;49.770;18.760;2024-01-25T09:41:38;97776.27;;;5.03;78.97
75513;BME280;64090;49.770;18.760;2024-01-25T09:44:43;97777.75;;;5.07;77.24
75513;BME280;64090;49.770;18.760;2024-01-25T09:47:48;97776.89;;;5.11;77.59
75513;BME280;64090;49.770;18.760;2024-01-25T09:51:17;97788.46;;;5.13;74.93
75513;BME280;64090;49.770;18.760;2024-01-25T09:54:23;97788.62;;;5.25;72.55
75513;BME280;64090;49.770;18.760;2024-01-25T09:57:30;97786.75;;;5.34;72.20
75513;BME280;64090;49.770;18.760;2024-01-25T10:00:35;97782.27;;;5.39;71.86
75513;BME280;64090;49.770;18.760;2024-01-25T10:07:43;97778.48;;;5.54;68.97
75513;BME280;64090;49.770;18.760;2024-01-25T10:10:50;97777.15;;;5.64;69.36
75513;BME280;64090;49.770;18.760;2024-01-25T10:13:59;97772.46;;;5.70;68.53
75513;BME280;64090;49.770;18.760;2024-01-25T10:17:03;97771.65;;;5.76;67.97
75513;BME280;64090;49.770;18.760;2024-01-25T10:20:07;97770.65;;;5.79;67.58
75513;BME280;64090;49.770;18.760;2024-01-25T10:23:14;97765.71;;;5.83;67.03
75513;BME280;64090;49.770;18.760;2024-01-25T10:26:19;97762.87;;;5.88;67.18
75513;BME280;64090;49.770;18.760;2024-01-25T10:29:25;97765.98;;;5.89;66.87
75513;BME280;64090;49.770;18.760;2024-01-25T10:32:37;97763.20;;;6.01;64.96
75513;BME280;64090;49.770;18.760;2024-01-25T10:35:40;97759.29;;;6.01;65.45
75513;BME280;64090;49.770;18.760;2024-01-25T10:38:49;97767.00;;;6.01;64.88
75513;BME280;64090;49.770;18.760;2024-01-25T10:41:59;97768.21;;;6.03;63.90
75513;BME280;64090;49.770;18.760;2024-01-25T10:45:07;97782.31;;;6.11;63.71
75513;BME280;64090;49.770;18.760;2024-01-25T10:48:11;97780.73;;;6.09;63.62
75513;BME280;64090;49.770;18.760;2024-01-25T10:51:14;97776.55;;;6.04;64.30
75513;BME280;64090;49.770;18.760;2024-01-25T10:54:21;97781.95;;;6.11;62.85
75513;BME280;64090;49.770;18.760;2024-01-25T10:57:25;97788.00;;;6.14;63.59
75513;BME280;64090;49.770;18.760;2024-01-25T11:00:35;97780.64;;;6.22;62.43
75513;BME280;64090;49.770;18.760;2024-01-25T11:03:39;97785.44;;;6.27;63.50
75513;BME280;64090;49.770;18.760;2024-01-25T11:06:46;97784.87;;;6.27;63.04
75513;BME280;64090;49.770;18.760;2024-01-25T11:09:54;97781.83;;;6.27;62.84
75513;BME280;64090;49.770;18.760;2024-01-25T11:13:00;97783.05;;;6.17;63.40
75513;BME280;64090;49.770;18.760;2024-01-25T11:16:28;97788.59;;;6.10;64.15
75513;BME280;64090;49.770;18.760;2024-01-25T11:19:35;97791.16;;;6.14;64.09
75513;BME280;64090;49.770;18.760;2024-01-25T11:22:44;97794.07;;;6.03;64.57
75513;BME280;64090;49.770;18.760;2024-01-25T11:25:48;97799.25;;;6.03;64.55
75513;BME280;64090;49.770;18.760;2024-01-25T11:28:51;97798.30;;;6.06;64.24
75513;BME280;64090;49.770;18.760;2024-01-25T11:35:16;97803.58;;;6.02;64.76
75513;BME280;64090;49.770;18.760;2024-01-25T11:38:24;97815.23;;;6.04;64.11
75513;BME280;64090;49.770;18.760;2024-01-25T11:41:31;97826.05;;;6.05;64.31
75513;BME280;64090;49.770;18.760;2024-01-25T11:44:37;97824.30;;;6.14;63.55
75513;BME280;64090;49.770;18.760;2024-01-25T11:47:43;97815.36;;;6.05;64.29
75513;BME280;64090;49.770;18.760;2024-01-25T11:50:47;97821.56;;;5.90;64.78
75513;BME280;64090;49.770;18.760;2024-01-25T11:53:55;97829.00;;;5.85;65.04
75513;BME280;64090;49.770;18.760;2024-01-25T11:57:01;97841.73;;;5.88;64.96
75513;BME280;64090;49.770;18.760;2024-01-25T12:00:08;97841.49;;;5.96;65.24
75513;BME280;64090;49.770;18.760;2024-01-25T12:03:12;97853.45;;;5.92;64.97
75513;BME280;64090;49.770;18.760;2024-01-25T12:06:17;97856.02;;;5.94;65.07
75513;BME280;64090;49.770;18.760;2024-01-25T12:09:23;97861.08;;;5.88;65.50
75513;BME280;64090;49.770;18.760;2024-01-25T12:12:27;97854.62;;;5.83;66.39
75513;BME280;64090;49.770;18.760;2024-01-25T12:15:34;97864.93;;;5.82;66.60
75513;BME280;64090;49.770;18.760;2024-01-25T12:18:40;97871.67;;;5.76;67.07
75513;BME280;64090;49.770;18.760;2024-01-25T12:21:47;97871.86;;;5.70;67.39
75513;BME280;64090;49.770;18.760;2024-01-25T12:25:01;97874.35;;;5.70;67.35
75513;BME280;64090;49.770;18.760;2024-01-25T12:28:04;97877.89;;;5.63;67.43
75513;BME280;64090;49.770;18.760;2024-01-25T12:31:15;97881.88;;;5.67;67.24
75513;BME280;64090;49.770;18.760;2024-01-25T12:34:20;97879.13;;;5.69;66.89
75513;BME280;64090;49.770;18.760;2024-01-25T12:41:38;97877.92;;;5.58;68.09
75513;BME280;64090;49.770;18.760;2024-01-25T12:44:42;97877.63;;;5.62;67.98
75513;BME280;64090;49.770;18.760;2024-01-25T12:47:45;97885.26;;;5.58;68.13
75513;BME280;64090;49.770;18.760;2024-01-25T12:50:49;97877.73;;;5.55;68.64
75513;BME280;64090;49.770;18.760;2024-01-25T12:53:53;97876.74;;;5.50;69.08
75513;BME280;64090;49.770;18.760;2024-01-25T12:56:56;97880.92;;;5.53;68.90
75513;BME280;64090;49.770;18.760;2024-01-25T13:00:02;97880.89;;;5.42;69.76
75513;BME280;64090;49.770;18.760;2024-01-25T13:03:07;97880.96;;;5.37;70.09
75513;BME280;64090;49.770;18.760;2024-01-25T13:06:10;97878.66;;;5.34;70.37
75513;BME280;64090;49.770;18.760;2024-01-25T13:09:16;97880.29;;;5.33;70.63
75513;BME280;64090;49.770;18.760;2024-01-25T13:12:19;97881.94;;;5.29;70.94
75513;BME280;64090;49.770;18.760;2024-01-25T13:15:23;97878.73;;;5.25;71.06
75513;BME280;64090;49.770;18.760;2024-01-25T13:18:26;97876.64;;;5.23;71.13
75513;BME280;64090;49.770;18.760;2024-01-25T13:21:30;97873.16;;;5.25;71.07
75513;BME280;64090;49.770;18.760;2024-01-25T13:24:33;97875.48;;;5.27;70.73
75513;BME280;64090;49.770;18.760;2024-01-25T13:27:37;97872.27;;;5.26;70.21
75513;BME280;64090;49.770;18.760;2024-01-25T13:30:40;97869.48;;;5.31;69.54
75513;BME280;64090;49.770;18.760;2024-01-25T13:33:43;97868.45;;;5.35;69.52
75513;BME280;64090;49.770;18.760;2024-01-25T13:36:50;97872.49;;;5.37;69.24
75513;BME280;64090;49.770;18.760;2024-01-25T13:39:53;97873.48;;;5.39;69.10
75513;BME280;64090;49.770;18.760;2024-01-25T13:42:56;97871.32;;;5.36;69.30
75513;BME280;64090;49.770;18.760;2024-01-25T13:45:59;97874.02;;;5.38;68.83
75513;BME280;64090;49.770;18.760;2024-01-25T13:49:03;97888.05;;;5.52;67.91
75513;BME280;64090;49.770;18.760;2024-01-25T13:52:19;97891.88;;;5.48;68.30
75513;BME280;64090;49.770;18.760;2024-01-25T13:55:23;97900.60;;;5.52;67.74
75513;BME280;64090;49.770;18.760;2024-01-25T13:58:26;97907.29;;;5.53;67.88
75513;BME280;64090;49.770;18.760;2024-01-25T14:01:29;97907.17;;;5.48;68.50
75513;BME280;64090;49.770;18.760;2024-01-25T14:04:32;97906.31;;;5.44;68.93
75513;BME280;64090;49.770;18.760;2024-01-25T14:07:36;97914.48;;;5.47;68.97
75513;BME280;64090;49.770;18.760;2024-01-25T14:10:39;97911.38;;;5.40;69.63
75513;BME280;64090;49.770;18.760;2024-01-25T14:13:43;97918.88;;;5.32;69.75
75513;BME280;64090;49.770;18.760;2024-01-25T14:16:47;97924.25;;;5.25;70.33
75513;BME280;64090;49.770;18.760;2024-01-25T14:19:50;97930.94;;;5.27;70.16
75513;BME280;64090;49.770;18.760;2024-01-25T14:22:53;97934.03;;;5.29;69.77
75513;BME280;64090;49.770;18.760;2024-01-25T14:25:57;97933.27;;;5.31;69.91
75513;BME280;64090;49.770;18.760;2024-01-25T14:29:00;97934.56;;;5.24;69.50
75513;BME280;64090;49.770;18.760;2024-01-25T14:32:03;97937.79;;;5.30;69.53
75513;BME280;64090;49.770;18.760;2024-01-25T14:35:07;97935.86;;;5.30;69.64
75513;BME280;64090;49.770;18.760;2024-01-25T14:38:13;97939.10;;;5.31;69.58
75513;BME280;64090;49.770;18.760;2024-01-25T14:41:16;97941.98;;;5.29;69.59
75513;BME280;64090;49.770;18.760;2024-01-25T14:44:19;97945.34;;;5.27;69.87
75513;BME280;64090;49.770;18.760;2024-01-25T14:47:32;97949.64;;;5.32;69.01
75513;BME280;64090;49.770;18.760;2024-01-25T14:54:06;97949.63;;;5.26;69.67
75513;BME280;64090;49.770;18.760;2024-01-25T15:01:13;97946.95;;;5.15;70.35
75513;BME280;64090;49.770;18.760;2024-01-25T15:04:19;97943.66;;;5.11;70.36
75513;BME280;64090;49.770;18.760;2024-01-25T15:07:25;97945.57;;;5.11;69.73
75513;BME280;64090;49.770;18.760;2024-01-25T15:10:28;97950.98;;;5.17;69.34
75513;BME280;64090;49.770;18.760;2024-01-25T15:13:37;97949.71;;;5.20;68.89
75513;BME280;64090;49.770;18.760;2024-01-25T15:20:12;97958.58;;;5.26;68.62
75513;BME280;64090;49.770;18.760;2024-01-25T15:23:15;97960.45;;;5.23;68.75
75513;BME280;64090;49.770;18.760;2024-01-25T15:26:18;97962.73;;;5.23;68.31
75513;BME280;64090;49.770;18.760;2024-01-25T15:29:21;97965.27;;;5.24;68.26
75513;BME280;64090;49.770;18.760;2024-01-25T15:32:24;97972.05;;;5.25;67.62
75513;BME280;64090;49.770;18.760;2024-01-25T15:35:28;97972.83;;;5.26;67.78
75513;BME280;64090;49.770;18.760;2024-01-25T15:38:33;97982.91;;;5.32;66.53
75513;BME280;64090;49.770;18.760;2024-01-25T15:41:39;97977.32;;;5.36;66.14
75513;BME280;64090;49.770;18.760;2024-01-25T15:44:43;97989.64;;;5.39;66.43
75513;BME280;64090;49.770;18.760;2024-01-25T15:47:46;97996.33;;;5.39;66.37
75513;BME280;64090;49.770;18.760;2024-01-25T15:50:52;97997.52;;;5.36;66.23
75513;BME280;64090;49.770;18.760;2024-01-25T15:53:57;98003.17;;;5.36;66.36
75513;BME280;64090;49.770;18.760;2024-01-25T15:57:03;98005.52;;;5.32;66.96
75513;BME280;64090;49.770;18.760;2024-01-25T16:00:12;98005.30;;;5.26;67.25
75513;BME280;64090;49.770;18.760;2024-01-25T16:03:15;98014.55;;;5.24;66.91
75513;BME280;64090;49.770;18.760;2024-01-25T16:06:22;98019.91;;;5.22;66.73
75513;BME280;64090;49.770;18.760;2024-01-25T16:09:36;98016.84;;;5.31;66.24
75513;BME280;64090;49.770;18.760;2024-01-25T16:12:42;98017.84;;;5.29;66.41
75513;BME280;64090;49.770;18.760;2024-01-25T16:15:46;98017.02;;;5.33;65.99
75513;BME280;64090;49.770;18.760;2024-01-25T16:18:49;98020.29;;;5.32;66.40
75513;BME280;64090;49.770;18.760;2024-01-25T16:21:53;98023.83;;;5.24;66.82
75513;BME280;64090;49.770;18.760;2024-01-25T16:24:59;98023.90;;;5.21;67.29
75513;BME280;64090;49.770;18.760;2024-01-25T16:28:08;98022.25;;;5.19;67.58
75513;BME280;64090;49.770;18.760;2024-01-25T16:31:11;98023.73;;;5.15;67.47
75513;BME280;64090;49.770;18.760;2024-01-25T16:34:14;98022.17;;;5.09;67.61
75513;BME280;64090;49.770;18.760;2024-01-25T16:37:18;98025.80;;;5.10;67.65
75513;BME280;64090;49.770;18.760;2024-01-25T16:40:21;98026.86;;;5.10;67.70
75513;BME280;64090;49.770;18.760;2024-01-25T16:43:24;98023.06;;;5.11;68.05
75513;BME280;64090;49.770;18.760;2024-01-25T16:46:27;98029.78;;;5.09;67.79
75513;BME280;64090;49.770;18.760;2024-01-25T16:49:33;98032.45;;;5.09;68.17
75513;BME280;64090;49.770;18.760;2024-01-25T16:52:36;98034.65;;;5.08;68.03
75513;BME280;64090;49.770;18.760;2024-01-25T16:55:39;98039.92;;;5.09;68.08
75513;BME280;64090;49.770;18.760;2024-01-25T16:58:42;98040.72;;;5.09;68.13
75513;BME280;64090;49.770;18.760;2024-01-25T17:01:47;98041.86;;;5.03;68.62
75513;BME280;64090;49.770;18.760;2024-01-25T17:04:52;98040.68;;;5.02;68.69
75513;BME280;64090;49.770;18.760;2024-01-25T17:07:58;98043.89;;;5.00;68.63
75513;BME280;64090;49.770;18.760;2024-01-25T17:11:01;98038.96;;;4.98;68.92
75513;BME280;64090;49.770;18.760;2024-01-25T17:14:05;98046.89;;;4.97;69.10